Time,TemperatureF,DewpointF,PressureIn,WindDirection,WindDirectionDegrees,WindSpeedMPH,WindSpeedGustMPH,Humidity,HourlyPrecipIn,Conditions,Clouds,dailyrainin,SoftwareType,DateUTC
2013-08-19 00:01:00,62.2,58.0,30.03,North,0,0.0,0.0,86,0.00,RA,,0.00,WeatherDisplay:10.37,2013-08-19 04:01:00,
2013-08-19 00:06:00,62.2,58.3,30.03,North,0,0.0,0.0,87,0.00,RA,,0.00,WeatherDisplay:10.37,2013-08-19 04:06:00,
2013-08-19 00:11:00,62.1,58.1,30.03,North,0,0.0,0.0,87,0.00,CLR,,0.00,WeatherDisplay:10.37,2013-08-19 04:11:00,
2013-08-19 00:16:00,62.1,58.1,30.03,North,0,0.0,0.0,87,0.00,CLR,,0.00,WeatherDisplay:10.37,2013-08-19 04:16:00,
2013-08-19 00:21:00,62.1,58.1,30.03,North,0,0.0,0.0,87,0.00,CLR,,0.00,WeatherDisplay:10.37,2013-08-19 04:21:00,
2013-08-19 00:26:00,61.9,58.0,30.03,North,0,0.0,0.0,87,0.00,CLR,,0.00,WeatherDisplay:10.37,2013-08-19 04:26:00,
2013-08-19 00:31:00,61.9,58.0,30.03,North,0,0.0,0.0,87,0.00,CLR,,0.00,WeatherDisplay:10.37,2013-08-19 04:31:00,
2013-08-19 00:36:00,61.9,58.0,30.03,North,0,0.0,0.0,87,0.00,CLR,,0.00,WeatherDisplay:10.37,2013-08-19 04:36:00,
2013-08-19 00:41:00,61.9,58.0,30.03,North,0,0.0,0.0,87,0.00,CLR,,0.00,WeatherDisplay:10.37,2013-08-19 04:41:00,
2013-08-19 00:46:00,61.7,57.8,30.03,North,0,0.0,0.0,87,0.00,CLR,,0.00,WeatherDisplay:10.37,2013-08-19 04:46:00,
2013-08-19 00:51:00,61.7,57.8,30.03,North,0,0.0,0.0,87,0.00,CLR,,0.00,WeatherDisplay:10.37,2013-08-19 04:51:00,
2013-08-19 00:56:00,61.7,57.8,30.03,North,0,0.0,0.0,87,0.00,CLR,,0.00,WeatherDisplay:10.37,2013-08-19 04:56:00,
2013-08-19 01:01:00,61.7,57.8,30.02,North,0,0.0,0.0,87,0.00,CLR,,0.00,WeatherDisplay:10.37,2013-08-19 05:01:00,
2013-08-19 01:06:00,61.7,57.8,30.02,North,0,0.0,0.0,87,0.00,CLR,,0.00,WeatherDisplay:10.37,2013-08-19 05:06:00,
2013-08-19 01:11:00,61.5,57.6,30.02,North,0,0.0,0.0,87,0.00,CLR,,0.00,WeatherDisplay:10.37,2013-08-19 05:11:00,
2013-08-19 01:16:00,61.5,57.6,30.02,North,0,0.0,0.0,87,0.00,CLR,,0.00,WeatherDisplay:10.37,2013-08-19 05:16:00,
2013-08-19 01:21:00,61.5,57.6,30.02,North,0,0.0,0.0,87,0.00,CLR,,0.00,WeatherDisplay:10.37,2013-08-19 05:21:00,
2013-08-19 01:26:00,61.3,57.4,30.01,North,0,0.0,0.0,87,0.00,CLR,,0.00,WeatherDisplay:10.37,2013-08-19 05:26:00,
2013-08-19 01:31:00,61.2,57.3,30.01,North,0,0.0,0.0,87,0.00,CLR,,0.00,WeatherDisplay:10.37,2013-08-19 05:31:00,
2013-08-19 01:36:00,61.2,57.3,30.02,North,0,0.0,0.0,87,0.00,CLR,,0.00,WeatherDisplay:10.37,2013-08-19 05:36:00,
2013-08-19 01:41:00,60.8,56.9,30.01,North,0,0.0,0.0,87,0.00,CLR,,0.00,WeatherDisplay:10.37,2013-08-19 05:41:00,
2013-08-19 01:46:00,60.8,56.9,30.01,North,0,0.0,0.0,87,0.00,CLR,,0.00,WeatherDisplay:10.37,2013-08-19 05:46:00,
2013-08-19 01:51:00,60.6,56.7,30.01,North,0,0.0,0.0,87,0.00,CLR,,0.00,WeatherDisplay:10.37,2013-08-19 05:51:00,
2013-08-19 01:56:00,60.4,56.6,30.01,North,0,0.0,0.0,87,0.00,CLR,,0.00,WeatherDisplay:10.37,2013-08-19 05:56:00,
2013-08-19 02:01:00,60.4,56.6,30.01,North,0,0.0,0.0,87,0.00,CLR,,0.00,WeatherDisplay:10.37,2013-08-19 06:01:00,
2013-08-19 02:06:00,60.3,56.4,30.01,North,0,0.0,0.0,87,0.00,CLR,,0.00,WeatherDisplay:10.37,2013-08-19 06:06:00,
2013-08-19 02:11:00,60.1,56.2,30.01,North,0,0.0,0.0,87,0.00,CLR,,0.00,WeatherDisplay:10.37,2013-08-19 06:11:00,
2013-08-19 02:16:00,60.1,56.2,30.01,North,0,0.0,0.0,87,0.00,CLR,,0.00,WeatherDisplay:10.37,2013-08-19 06:16:00,
2013-08-19 02:21:00,59.9,56.0,30.01,North,0,0.0,0.0,87,0.00,CLR,,0.00,WeatherDisplay:10.37,2013-08-19 06:21:00,
2013-08-19 02:26:00,59.7,55.8,30.01,North,0,0.0,0.0,87,0.00,CLR,,0.00,WeatherDisplay:10.37,2013-08-19 06:26:00,
2013-08-19 02:31:00,59.7,56.2,30.01,North,0,0.0,0.0,88,0.00,CLR,,0.00,WeatherDisplay:10.37,2013-08-19 06:31:00,
2013-08-19 02:36:00,59.5,56.0,30.01,North,0,0.0,0.0,88,0.00,CLR,,0.00,WeatherDisplay:10.37,2013-08-19 06:36:00,
2013-08-19 02:41:00,59.5,56.0,30.01,North,0,0.0,0.0,88,0.00,CLR,,0.00,WeatherDisplay:10.37,2013-08-19 06:41:00,
2013-08-19 02:46:00,59.4,55.8,30.01,North,0,0.0,0.0,88,0.00,CLR,,0.00,WeatherDisplay:10.37,2013-08-19 06:46:00,
2013-08-19 02:51:00,59.4,55.8,30.01,North,0,0.0,0.0,88,0.00,CLR,,0.00,WeatherDisplay:10.37,2013-08-19 06:51:00,
2013-08-19 02:56:00,59.2,55.6,30.01,North,0,0.0,0.0,88,0.00,CLR,,0.00,WeatherDisplay:10.37,2013-08-19 06:56:00,
2013-08-19 03:01:00,59.2,55.6,30.00,North,0,0.0,0.0,88,0.00,CLR,,0.00,WeatherDisplay:10.37,2013-08-19 07:01:00,
2013-08-19 03:06:00,59.0,55.4,30.00,North,0,0.0,0.0,88,0.00,CLR,,0.00,WeatherDisplay:10.37,2013-08-19 07:06:00,
2013-08-19 03:11:00,59.0,55.4,30.00,North,0,0.0,0.0,88,0.00,CLR,,0.00,WeatherDisplay:10.37,2013-08-19 07:11:00,
2013-08-19 03:16:00,58.8,55.3,30.00,North,0,0.0,0.0,88,0.00,CLR,,0.00,WeatherDisplay:10.37,2013-08-19 07:16:00,
2013-08-19 03:21:00,58.8,55.3,30.00,North,0,0.0,0.0,88,0.00,CLR,,0.00,WeatherDisplay:10.37,2013-08-19 07:21:00,
2013-08-19 03:26:00,58.6,55.1,30.00,North,0,0.0,0.0,88,0.00,CLR,,0.00,WeatherDisplay:10.37,2013-08-19 07:26:00,
2013-08-19 03:31:00,58.6,55.4,30.00,North,0,0.0,0.0,89,0.00,CLR,,0.00,WeatherDisplay:10.37,2013-08-19 07:31:00,
2013-08-19 03:36:00,58.6,55.4,30.00,North,0,0.0,0.0,89,0.00,CLR,,0.00,WeatherDisplay:10.37,2013-08-19 07:36:00,
2013-08-19 03:41:00,58.5,55.2,30.00,North,0,0.0,0.0,89,0.00,CLR,,0.00,WeatherDisplay:10.37,2013-08-19 07:41:00,
2013-08-19 03:46:00,58.3,55.1,30.00,North,0,0.0,0.0,89,0.00,CLR,,0.00,WeatherDisplay:10.37,2013-08-19 07:46:00,
2013-08-19 03:51:00,58.3,55.1,30.00,North,0,0.0,0.0,89,0.00,CLR,,0.00,WeatherDisplay:10.37,2013-08-19 07:51:00,
2013-08-19 03:56:00,58.3,55.1,30.00,North,0,0.0,0.0,89,0.00,CLR,,0.00,WeatherDisplay:10.37,2013-08-19 07:56:00,
2013-08-19 04:01:00,58.1,54.6,30.00,WNW,292,0.0,0.0,88,0.00,CLR,,0.00,WeatherDisplay:10.37,2013-08-19 08:01:00,
2013-08-19 04:06:00,58.1,54.6,30.00,SSW,202,0.0,0.0,88,0.00,CLR,,0.00,WeatherDisplay:10.37,2013-08-19 08:06:00,
2013-08-19 04:11:00,58.1,54.6,30.00,SW,225,0.0,0.0,88,0.00,CLR,,0.00,WeatherDisplay:10.37,2013-08-19 08:11:00,
2013-08-19 04:16:00,57.9,54.4,30.00,SW,225,0.0,0.0,88,0.00,CLR,,0.00,WeatherDisplay:10.37,2013-08-19 08:16:00,
2013-08-19 04:21:00,57.9,54.4,30.00,SW,225,0.0,0.0,88,0.00,CLR,,0.00,WeatherDisplay:10.37,2013-08-19 08:21:00,
2013-08-19 04:26:00,57.7,54.2,30.00,SW,225,0.0,0.0,88,0.00,CLR,,0.00,WeatherDisplay:10.37,2013-08-19 08:26:00,
2013-08-19 04:31:00,57.7,54.2,30.00,SW,225,0.0,0.0,88,0.00,CLR,,0.00,WeatherDisplay:10.37,2013-08-19 08:31:00,
2013-08-19 04:36:00,57.6,54.0,30.00,SW,225,0.0,0.0,88,0.00,CLR,,0.00,WeatherDisplay:10.37,2013-08-19 08:36:00,
2013-08-19 04:41:00,57.6,54.0,30.00,SW,225,0.0,0.0,88,0.00,CLR,,0.00,WeatherDisplay:10.37,2013-08-19 08:41:00,
2013-08-19 04:46:00,57.4,53.9,30.00,SW,225,0.0,0.0,88,0.00,CLR,,0.00,WeatherDisplay:10.37,2013-08-19 08:46:00,
2013-08-19 04:51:00,57.2,53.7,30.00,SW,225,0.0,0.0,88,0.00,CLR,,0.00,WeatherDisplay:10.37,2013-08-19 08:51:00,
2013-08-19 04:56:00,57.2,53.7,30.00,SW,225,0.0,0.0,88,0.00,CLR,,0.00,WeatherDisplay:10.37,2013-08-19 08:56:00,
2013-08-19 05:01:00,57.2,53.7,30.00,SW,225,0.0,0.0,88,0.00,CLR,,0.00,WeatherDisplay:10.37,2013-08-19 09:01:00,
2013-08-19 05:06:00,56.8,53.3,30.00,SW,225,0.0,0.0,88,0.00,CLR,,0.00,WeatherDisplay:10.37,2013-08-19 09:06:00,
2013-08-19 05:11:00,56.8,53.3,30.00,SW,225,0.0,0.0,88,0.00,CLR,,0.00,WeatherDisplay:10.37,2013-08-19 09:11:00,
2013-08-19 05:16:00,56.7,53.1,30.00,SW,225,0.0,0.0,88,0.00,CLR,,0.00,WeatherDisplay:10.37,2013-08-19 09:16:00,
2013-08-19 05:21:00,56.5,53.0,30.00,SW,225,0.0,0.0,88,0.00,CLR,,0.00,WeatherDisplay:10.37,2013-08-19 09:21:00,
2013-08-19 05:26:00,56.5,53.0,30.00,SW,225,0.0,0.0,88,0.00,CLR,,0.00,WeatherDisplay:10.37,2013-08-19 09:26:00,
2013-08-19 05:31:00,56.3,52.8,30.00,SW,225,0.0,0.0,88,0.00,CLR,,0.00,WeatherDisplay:10.37,2013-08-19 09:31:00,
2013-08-19 05:36:00,56.3,52.8,30.00,SW,225,0.0,0.0,88,0.00,CLR,,0.00,WeatherDisplay:10.37,2013-08-19 09:36:00,
2013-08-19 05:41:00,56.1,52.6,30.00,SW,225,0.0,0.0,88,0.00,CLR,,0.00,WeatherDisplay:10.37,2013-08-19 09:41:00,
2013-08-19 05:46:00,56.1,52.6,30.00,SW,225,0.0,0.0,88,0.00,CLR,,0.00,WeatherDisplay:10.37,2013-08-19 09:46:00,
2013-08-19 05:51:00,56.1,52.6,30.00,SW,225,0.0,0.0,88,0.00,CLR,,0.00,WeatherDisplay:10.37,2013-08-19 09:51:00,
2013-08-19 05:56:00,56.1,52.9,30.00,SW,225,0.0,0.0,89,0.00,CLR,,0.00,WeatherDisplay:10.37,2013-08-19 09:56:00,
2013-08-19 06:01:00,56.1,52.9,30.00,SW,225,0.0,0.0,89,0.00,CLR,,0.00,WeatherDisplay:10.37,2013-08-19 10:01:00,
2013-08-19 06:06:00,56.1,52.9,30.00,SW,225,0.0,0.0,89,0.00,CLR,,0.00,WeatherDisplay:10.37,2013-08-19 10:06:00,
2013-08-19 06:11:00,56.1,52.9,30.00,SW,225,0.0,0.0,89,0.00,CLR,,0.00,WeatherDisplay:10.37,2013-08-19 10:11:00,
2013-08-19 06:16:00,56.3,53.1,30.00,SW,225,0.0,0.0,89,0.00,CLR,,0.00,WeatherDisplay:10.37,2013-08-19 10:16:00,
2013-08-19 06:21:00,56.5,53.3,30.00,SW,225,0.5,0.5,89,0.00,CLR,,0.00,WeatherDisplay:10.37,2013-08-19 10:21:00,
2013-08-19 06:26:00,56.5,53.3,30.00,SW,225,0.0,0.0,89,0.00,CLR,,0.00,WeatherDisplay:10.37,2013-08-19 10:26:00,
2013-08-19 06:31:00,56.7,53.5,30.00,SW,225,0.0,0.0,89,0.00,CLR,,0.00,WeatherDisplay:10.37,2013-08-19 10:31:00,
2013-08-19 06:36:00,56.8,53.6,30.00,WSW,248,0.2,0.2,89,0.00,CLR,,0.00,WeatherDisplay:10.37,2013-08-19 10:36:00,
2013-08-19 06:41:00,57.0,53.8,30.00,SW,225,0.5,0.5,89,0.00,CLR,,0.00,WeatherDisplay:10.37,2013-08-19 10:41:00,
2013-08-19 06:46:00,57.2,54.0,30.00,SW,225,0.5,1.1,89,0.00,CLR,,0.00,WeatherDisplay:10.37,2013-08-19 10:46:00,
2013-08-19 06:51:00,57.4,54.2,30.00,SW,225,0.0,0.0,89,0.00,CLR,,0.00,WeatherDisplay:10.37,2013-08-19 10:51:00,
2013-08-19 06:56:00,57.6,54.3,30.00,SW,225,0.0,0.0,89,0.00,CLR,,0.00,WeatherDisplay:10.37,2013-08-19 10:56:00,
2013-08-19 07:01:00,57.9,54.7,30.00,SW,225,0.7,1.1,89,0.00,CLR,,0.00,WeatherDisplay:10.37,2013-08-19 11:01:00,
2013-08-19 07:06:00,58.3,55.4,30.00,SW,225,0.0,1.1,90,0.00,CLR,,0.00,WeatherDisplay:10.37,2013-08-19 11:06:00,
2013-08-19 07:11:00,58.6,55.7,30.00,SW,225,0.0,0.0,90,0.00,CLR,,0.00,WeatherDisplay:10.37,2013-08-19 11:11:00,
2013-08-19 07:16:00,58.8,55.9,30.00,SW,225,0.0,0.0,90,0.00,CLR,,0.00,WeatherDisplay:10.37,2013-08-19 11:16:00,
2013-08-19 07:21:00,59.4,56.4,30.00,SW,225,0.0,0.0,90,0.01,RA,,0.01,WeatherDisplay:10.37,2013-08-19 11:21:00,
2013-08-19 07:26:00,59.7,56.8,29.99,SW,225,0.5,0.0,90,0.01,RA,,0.01,WeatherDisplay:10.37,2013-08-19 11:26:00,
2013-08-19 07:31:00,60.1,57.1,30.00,SW,225,0.0,1.1,90,0.01,,,0.01,WeatherDisplay:10.37,2013-08-19 11:31:00,
2013-08-19 07:36:00,60.4,57.5,30.00,SSW,202,0.0,0.0,90,0.01,CLR,,0.01,WeatherDisplay:10.37,2013-08-19 11:36:00,
2013-08-19 07:41:00,61.0,58.0,29.99,SW,225,1.1,1.1,90,0.01,CLR,,0.01,WeatherDisplay:10.37,2013-08-19 11:41:00,
2013-08-19 07:46:00,61.5,58.6,29.99,SW,225,1.1,1.1,90,0.01,CLR,,0.01,WeatherDisplay:10.37,2013-08-19 11:46:00,
2013-08-19 07:51:00,62.2,59.3,29.98,SW,225,1.1,1.1,90,0.01,CLR,,0.01,WeatherDisplay:10.37,2013-08-19 11:51:00,
2013-08-19 07:56:00,62.8,59.8,29.99,SW,225,1.1,1.1,90,0.01,CLR,,0.01,WeatherDisplay:10.37,2013-08-19 11:56:00,
2013-08-19 08:01:00,63.3,60.3,29.98,SW,225,1.1,1.1,90,0.01,CLR,,0.01,WeatherDisplay:10.37,2013-08-19 12:01:00,
2013-08-19 08:06:00,63.9,60.9,29.99,SW,225,1.1,1.1,90,0.01,CLR,,0.01,WeatherDisplay:10.37,2013-08-19 12:06:00,
2013-08-19 08:11:00,64.4,61.4,29.99,SW,225,1.1,1.1,90,0.01,CLR,,0.01,WeatherDisplay:10.37,2013-08-19 12:11:00,
2013-08-19 08:16:00,64.8,61.8,29.99,SW,225,1.1,1.1,90,0.01,CLR,,0.01,WeatherDisplay:10.37,2013-08-19 12:16:00,
2013-08-19 08:21:00,65.1,62.1,29.99,SW,225,1.1,1.1,90,0.00,CLR,,0.01,WeatherDisplay:10.37,2013-08-19 12:21:00,
2013-08-19 08:26:00,65.7,62.3,29.99,SW,225,1.1,1.1,89,0.00,CLR,,0.01,WeatherDisplay:10.37,2013-08-19 12:26:00,
2013-08-19 08:31:00,66.2,63.2,29.99,SW,225,1.1,1.1,90,0.00,CLR,,0.01,WeatherDisplay:10.37,2013-08-19 12:31:00,
2013-08-19 08:36:00,66.7,63.7,29.98,SW,225,1.1,1.1,90,0.00,CLR,,0.01,WeatherDisplay:10.37,2013-08-19 12:36:00,
2013-08-19 08:41:00,67.1,63.7,29.98,SW,225,1.1,1.1,89,0.00,CLR,,0.01,WeatherDisplay:10.37,2013-08-19 12:41:00,
2013-08-19 08:46:00,67.6,64.0,29.98,SW,225,1.1,1.1,88,0.00,CLR,,0.01,WeatherDisplay:10.37,2013-08-19 12:46:00,
2013-08-19 08:51:00,68.0,64.3,29.98,SW,225,1.1,1.1,88,0.00,CLR,,0.01,WeatherDisplay:10.37,2013-08-19 12:51:00,
2013-08-19 08:56:00,68.5,64.8,29.98,SW,225,1.1,1.1,88,0.00,CLR,,0.01,WeatherDisplay:10.37,2013-08-19 12:56:00,
2013-08-19 09:01:00,69.1,65.0,29.98,WSW,248,0.2,0.2,87,0.00,CLR,,0.01,WeatherDisplay:10.37,2013-08-19 13:01:00,
2013-08-19 09:06:00,69.4,65.1,29.98,SW,225,0.2,1.1,86,0.00,CLR,,0.01,WeatherDisplay:10.37,2013-08-19 13:06:00,
2013-08-19 09:11:00,69.8,65.4,29.98,SW,225,0.5,0.5,86,0.00,CLR,,0.01,WeatherDisplay:10.37,2013-08-19 13:11:00,
2013-08-19 09:16:00,70.3,66.0,29.98,SSW,202,0.5,1.1,86,0.00,CLR,,0.01,WeatherDisplay:10.37,2013-08-19 13:16:00,
2013-08-19 09:21:00,70.7,65.6,29.98,WSW,248,0.9,3.5,84,0.00,CLR,,0.01,WeatherDisplay:10.37,2013-08-19 13:21:00,
2013-08-19 09:26:00,70.7,65.6,29.97,SW,225,0.9,1.1,84,0.00,CLR,,0.01,WeatherDisplay:10.37,2013-08-19 13:26:00,
2013-08-19 09:31:00,70.9,65.5,29.97,West,270,0.9,3.5,83,0.00,CLR,,0.01,WeatherDisplay:10.37,2013-08-19 13:31:00,
2013-08-19 09:36:00,70.9,65.1,29.97,WSW,248,0.7,1.1,82,0.00,CLR,,0.01,WeatherDisplay:10.37,2013-08-19 13:36:00,
2013-08-19 09:41:00,71.1,65.6,29.97,SSE,158,0.2,1.1,83,0.00,CLR,,0.01,WeatherDisplay:10.37,2013-08-19 13:41:00,
2013-08-19 09:46:00,71.6,65.8,29.97,WNW,292,0.7,2.3,82,0.00,CLR,,0.01,WeatherDisplay:10.37,2013-08-19 13:46:00,
2013-08-19 09:51:00,72.3,66.5,29.96,North,0,0.2,1.1,82,0.00,CLR,,0.01,WeatherDisplay:10.37,2013-08-19 13:51:00,
2013-08-19 09:56:00,72.9,66.7,29.97,South,180,0.7,1.1,81,0.00,CLR,,0.01,WeatherDisplay:10.37,2013-08-19 13:56:00,
2013-08-19 10:01:00,73.4,67.2,29.96,North,0,0.7,1.1,81,0.00,CLR,,0.01,WeatherDisplay:10.37,2013-08-19 14:01:00,
2013-08-19 10:06:00,73.8,66.5,29.97,SSW,202,1.1,1.1,78,0.00,CLR,,0.01,WeatherDisplay:10.37,2013-08-19 14:06:00,
2013-08-19 10:11:00,74.1,66.8,29.96,SW,225,0.7,2.3,78,0.00,CLR,,0.01,WeatherDisplay:10.37,2013-08-19 14:11:00,
2013-08-19 10:16:00,74.5,67.2,29.96,WNW,292,0.2,1.1,78,0.00,CLR,,0.01,WeatherDisplay:10.37,2013-08-19 14:16:00,
2013-08-19 10:21:00,75.0,67.3,29.96,WSW,248,0.9,1.1,77,0.00,CLR,,0.01,WeatherDisplay:10.37,2013-08-19 14:21:00,
2013-08-19 10:26:00,75.6,67.8,29.96,North,0,0.0,0.0,77,0.00,CLR,,0.01,WeatherDisplay:10.37,2013-08-19 14:26:00,
2013-08-19 10:31:00,75.9,67.8,29.96,SW,225,0.9,0.9,76,0.00,CLR,,0.01,WeatherDisplay:10.37,2013-08-19 14:31:00,
2013-08-19 10:36:00,76.6,67.3,29.96,SSW,202,1.1,1.1,73,0.00,CLR,,0.01,WeatherDisplay:10.37,2013-08-19 14:36:00,
2013-08-19 10:41:00,77.4,68.8,29.96,SW,225,1.4,1.4,75,0.00,CLR,,0.01,WeatherDisplay:10.37,2013-08-19 14:41:00,
2013-08-19 10:46:00,77.9,68.9,29.95,SSW,202,1.1,3.5,74,0.00,CLR,,0.01,WeatherDisplay:10.37,2013-08-19 14:46:00,
2013-08-19 10:51:00,77.9,66.9,29.95,ENE,68,0.5,2.3,69,0.00,CLR,,0.01,WeatherDisplay:10.37,2013-08-19 14:51:00,
2013-08-19 10:56:00,77.9,67.7,29.95,SW,225,0.5,2.3,71,0.00,CLR,,0.01,WeatherDisplay:10.37,2013-08-19 14:56:00,
2013-08-19 11:01:00,77.5,67.8,29.95,SSW,202,0.5,2.3,72,0.00,CLR,,0.01,WeatherDisplay:10.37,2013-08-19 15:01:00,
2013-08-19 11:06:00,77.4,68.0,29.95,SW,225,0.2,1.1,73,0.00,CLR,,0.01,WeatherDisplay:10.37,2013-08-19 15:06:00,
2013-08-19 11:11:00,77.7,68.4,29.95,WNW,292,1.1,1.1,73,0.00,CLR,,0.01,WeatherDisplay:10.37,2013-08-19 15:11:00,
2013-08-19 11:16:00,78.1,67.9,29.95,SW,225,1.8,1.8,71,0.00,CLR,,0.01,WeatherDisplay:10.37,2013-08-19 15:16:00,
2013-08-19 11:21:00,78.4,68.3,29.95,West,270,0.5,1.1,71,0.00,CLR,,0.01,WeatherDisplay:10.37,2013-08-19 15:21:00,
2013-08-19 11:26:00,78.4,67.8,29.95,SSE,158,2.4,2.4,70,0.00,CLR,,0.01,WeatherDisplay:10.37,2013-08-19 15:26:00,
2013-08-19 11:31:00,78.6,66.3,29.95,NNW,338,1.1,1.1,66,0.00,CLR,,0.01,WeatherDisplay:10.37,2013-08-19 15:31:00,
2013-08-19 11:36:00,79.2,67.3,29.95,WSW,248,2.4,2.4,67,0.00,CLR,,0.01,WeatherDisplay:10.37,2013-08-19 15:36:00,
2013-08-19 11:41:00,79.3,67.4,29.96,SSE,158,0.5,2.3,67,0.00,CLR,,0.01,WeatherDisplay:10.37,2013-08-19 15:41:00,
2013-08-19 11:46:00,79.7,66.9,29.96,SSW,202,1.1,2.3,65,0.00,CLR,,0.01,WeatherDisplay:10.37,2013-08-19 15:46:00,
2013-08-19 12:13:00,80.1,67.2,29.95,NNW,338,0.9,2.3,65,0.00,CLR,,0.01,WeatherDisplay:10.37,2013-08-19 16:13:00,
2013-08-19 12:18:00,81.3,66.1,29.95,SSE,158,1.4,4.6,60,0.00,RA,,0.01,WeatherDisplay:10.37,2013-08-19 16:18:00,
2013-08-19 12:23:00,81.7,65.5,29.95,NNW,338,0.5,4.6,58,0.00,RA,,0.01,WeatherDisplay:10.37,2013-08-19 16:23:00,
2013-08-19 12:28:00,82.0,66.3,29.95,North,0,0.7,3.5,59,0.00,CLR,,0.01,WeatherDisplay:10.37,2013-08-19 16:28:00,
2013-08-19 12:33:00,81.9,65.6,29.95,WNW,292,0.2,0.2,58,0.00,CLR,,0.01,WeatherDisplay:10.37,2013-08-19 16:33:00,
2013-08-19 12:38:00,81.7,65.5,29.95,West,270,0.5,2.3,58,0.00,CLR,,0.01,WeatherDisplay:10.37,2013-08-19 16:38:00,
2013-08-19 12:43:00,81.7,65.5,29.95,NW,315,0.5,1.1,58,0.00,CLR,,0.01,WeatherDisplay:10.37,2013-08-19 16:43:00,
2013-08-19 12:48:00,82.0,64.8,29.94,NW,315,2.6,2.6,56,0.00,CLR,,0.01,WeatherDisplay:10.37,2013-08-19 16:48:00,
2013-08-19 12:53:00,82.2,65.5,29.94,SW,225,0.7,1.1,57,0.00,CLR,,0.01,WeatherDisplay:10.37,2013-08-19 16:53:00,
2013-08-19 12:58:00,82.4,65.1,29.94,SW,225,0.5,2.3,56,0.00,CLR,,0.01,WeatherDisplay:10.37,2013-08-19 16:58:00,
2013-08-19 13:03:00,82.4,65.6,29.94,South,180,0.7,2.3,57,0.00,CLR,,0.01,WeatherDisplay:10.37,2013-08-19 17:03:00,
2013-08-19 13:08:00,82.0,65.3,29.94,SSW,202,1.8,2.3,57,0.00,CLR,,0.01,WeatherDisplay:10.37,2013-08-19 17:08:00,
2013-08-19 13:13:00,82.2,65.5,29.94,WSW,248,1.8,2.3,57,0.00,CLR,,0.01,WeatherDisplay:10.37,2013-08-19 17:13:00,
2013-08-19 13:18:00,82.4,65.1,29.93,West,270,1.4,2.3,56,0.00,CLR,,0.01,WeatherDisplay:10.37,2013-08-19 17:18:00,
2013-08-19 13:23:00,82.0,65.3,29.94,WNW,292,0.9,1.1,57,0.00,CLR,,0.01,WeatherDisplay:10.37,2013-08-19 17:23:00,
2013-08-19 13:28:00,82.2,64.4,29.93,WSW,248,2.0,2.3,55,0.00,CLR,,0.01,WeatherDisplay:10.37,2013-08-19 17:28:00,
2013-08-19 13:33:00,82.0,64.3,29.94,North,0,1.4,1.4,55,0.00,CLR,,0.01,WeatherDisplay:10.37,2013-08-19 17:33:00,
2013-08-19 13:38:00,82.4,65.1,29.93,WSW,248,4.7,4.7,56,0.00,CLR,,0.01,WeatherDisplay:10.37,2013-08-19 17:38:00,
2013-08-19 13:43:00,82.8,64.9,29.93,West,270,1.4,1.4,55,0.00,CLR,,0.01,WeatherDisplay:10.37,2013-08-19 17:43:00,
2013-08-19 13:48:00,82.6,64.8,29.93,ENE,68,1.6,1.6,55,0.00,CLR,,0.01,WeatherDisplay:10.37,2013-08-19 17:48:00,
2013-08-19 13:53:00,82.0,64.3,29.93,SSE,158,0.9,2.3,55,0.00,CLR,,0.01,WeatherDisplay:10.37,2013-08-19 17:53:00,
2013-08-19 13:58:00,82.0,65.3,29.93,ENE,68,0.7,0.7,57,0.00,CLR,,0.01,WeatherDisplay:10.37,2013-08-19 17:58:00,
2013-08-19 14:03:00,82.0,65.8,29.93,SSW,202,1.1,2.3,58,0.00,CLR,,0.01,WeatherDisplay:10.37,2013-08-19 18:03:00,
2013-08-19 14:08:00,81.9,65.1,29.93,SSW,202,1.4,2.3,57,0.00,CLR,,0.01,WeatherDisplay:10.37,2013-08-19 18:08:00,
2013-08-19 14:13:00,81.9,65.6,29.93,WSW,248,0.7,2.3,58,0.00,CLR,,0.01,WeatherDisplay:10.37,2013-08-19 18:13:00,
2013-08-19 14:18:00,82.0,65.8,29.93,WSW,248,5.6,5.8,58,0.00,CLR,,0.01,WeatherDisplay:10.37,2013-08-19 18:18:00,
2013-08-19 14:23:00,82.0,67.3,29.93,SSW,202,0.9,1.1,61,0.00,CLR,,0.01,WeatherDisplay:10.37,2013-08-19 18:23:00,
2013-08-19 14:28:00,81.9,66.6,29.93,WSW,248,5.6,5.6,60,0.00,CLR,,0.01,WeatherDisplay:10.37,2013-08-19 18:28:00,
2013-08-19 14:33:00,82.0,66.8,29.93,SW,225,3.6,8.1,60,0.00,CLR,,0.01,WeatherDisplay:10.37,2013-08-19 18:33:00,
2013-08-19 14:38:00,82.0,66.8,29.93,SW,225,3.3,4.6,60,0.00,CLR,,0.01,WeatherDisplay:10.37,2013-08-19 18:38:00,
2013-08-19 14:43:00,81.9,67.1,29.93,SSW,202,4.3,4.3,61,0.00,CLR,,0.01,WeatherDisplay:10.37,2013-08-19 18:43:00,
2013-08-19 14:48:00,81.5,66.8,29.92,SSW,202,4.0,5.8,61,0.00,CLR,,0.01,WeatherDisplay:10.37,2013-08-19 18:48:00,
2013-08-19 14:53:00,81.1,66.9,29.92,SW,225,4.5,5.8,62,0.00,CLR,,0.01,WeatherDisplay:10.37,2013-08-19 18:53:00,
2013-08-19 14:58:00,81.1,67.3,29.92,SW,225,2.4,2.4,63,0.00,CLR,,0.01,WeatherDisplay:10.37,2013-08-19 18:58:00,
2013-08-19 15:03:00,81.0,67.2,29.91,SW,225,5.2,5.2,63,0.00,CLR,,0.01,WeatherDisplay:10.37,2013-08-19 19:03:00,
2013-08-19 15:08:00,80.8,67.0,29.92,SSW,202,0.5,5.8,63,0.00,CLR,,0.01,WeatherDisplay:10.37,2013-08-19 19:08:00,
2013-08-19 15:13:00,80.6,67.3,29.92,SW,225,4.3,4.6,64,0.00,CLR,,0.01,WeatherDisplay:10.37,2013-08-19 19:13:00,
2013-08-19 15:18:00,80.6,67.3,29.92,South,180,1.1,2.3,64,0.00,CLR,,0.01,WeatherDisplay:10.37,2013-08-19 19:18:00,
2013-08-19 15:23:00,80.4,67.1,29.92,West,270,1.1,4.6,64,0.00,CLR,,0.01,WeatherDisplay:10.37,2013-08-19 19:23:00,
2013-08-19 15:28:00,80.2,67.0,29.92,SW,225,0.5,2.3,64,0.00,CLR,,0.01,WeatherDisplay:10.37,2013-08-19 19:28:00,
2013-08-19 15:33:00,80.2,67.4,29.92,SSW,202,2.4,2.4,65,0.00,CLR,,0.01,WeatherDisplay:10.37,2013-08-19 19:33:00,
2013-08-19 15:38:00,80.2,67.4,29.92,SW,225,1.1,1.1,65,0.00,CLR,,0.01,WeatherDisplay:10.37,2013-08-19 19:38:00,
2013-08-19 15:43:00,80.2,67.0,29.91,SSW,202,0.7,2.3,64,0.00,CLR,,0.01,WeatherDisplay:10.37,2013-08-19 19:43:00,
2013-08-19 15:48:00,80.1,66.8,29.91,WSW,248,2.0,2.3,64,0.00,CLR,,0.01,WeatherDisplay:10.37,2013-08-19 19:48:00,
2013-08-19 15:53:00,79.9,66.2,29.91,NNE,22,0.5,3.5,63,0.00,CLR,,0.01,WeatherDisplay:10.37,2013-08-19 19:53:00,
2013-08-19 15:58:00,79.9,66.2,29.91,NNW,338,0.5,3.5,63,0.00,CLR,,0.01,WeatherDisplay:10.37,2013-08-19 19:58:00,
2013-08-19 16:03:00,79.7,66.4,29.91,SSW,202,0.5,2.3,64,0.00,CLR,,0.01,WeatherDisplay:10.37,2013-08-19 20:03:00,
2013-08-19 16:08:00,79.5,66.7,29.91,WSW,248,1.8,2.3,65,0.00,CLR,,0.01,WeatherDisplay:10.37,2013-08-19 20:08:00,
2013-08-19 16:13:00,79.5,66.7,29.91,SSW,202,1.1,1.1,65,0.00,CLR,,0.01,WeatherDisplay:10.37,2013-08-19 20:13:00,
2013-08-19 16:18:00,79.3,66.5,29.91,West,270,1.4,2.3,65,0.00,CLR,,0.01,WeatherDisplay:10.37,2013-08-19 20:18:00,
2013-08-19 16:23:00,79.2,66.8,29.90,SW,225,0.7,1.1,66,0.00,CLR,,0.01,WeatherDisplay:10.37,2013-08-19 20:23:00,
2013-08-19 16:28:00,79.2,66.8,29.91,SW,225,0.7,2.3,66,0.00,CLR,,0.01,WeatherDisplay:10.37,2013-08-19 20:28:00,
2013-08-19 16:33:00,79.2,66.8,29.90,WSW,248,0.2,3.5,66,0.00,CLR,,0.01,WeatherDisplay:10.37,2013-08-19 20:33:00,
2013-08-19 16:38:00,79.0,66.6,29.90,SSW,202,1.1,2.3,66,0.00,CLR,,0.01,WeatherDisplay:10.37,2013-08-19 20:38:00,
2013-08-19 16:43:00,78.8,66.5,29.90,WSW,248,1.8,1.8,66,0.00,CLR,,0.01,WeatherDisplay:10.37,2013-08-19 20:43:00,
2013-08-19 16:48:00,78.4,66.1,29.90,WSW,248,2.6,2.6,66,0.00,CLR,,0.01,WeatherDisplay:10.37,2013-08-19 20:48:00,
2013-08-19 16:53:00,78.3,66.4,29.91,SW,225,1.1,3.5,67,0.00,CLR,,0.01,WeatherDisplay:10.37,2013-08-19 20:53:00,
2013-08-19 16:58:00,78.1,66.2,29.90,SW,225,1.6,3.5,67,0.00,CLR,,0.01,WeatherDisplay:10.37,2013-08-19 20:58:00,
2013-08-19 17:03:00,77.9,66.5,29.91,SW,225,1.8,2.3,68,0.00,CLR,,0.01,WeatherDisplay:10.37,2013-08-19 21:03:00,
2013-08-19 17:09:00,77.7,66.3,29.91,SSW,202,0.0,0.0,68,0.00,CLR,,0.01,WeatherDisplay:10.37,2013-08-19 21:09:00,
2013-08-19 17:14:00,77.5,66.6,29.91,WSW,248,0.2,3.5,69,0.00,CLR,,0.01,WeatherDisplay:10.37,2013-08-19 21:14:00,
2013-08-19 17:19:00,77.4,66.4,29.91,SW,225,0.7,0.7,69,0.00,CLR,,0.01,WeatherDisplay:10.37,2013-08-19 21:19:00,
2013-08-19 17:24:00,77.0,66.0,29.91,SW,225,0.2,1.1,69,0.00,CLR,,0.01,WeatherDisplay:10.37,2013-08-19 21:24:00,
2013-08-19 17:29:00,76.8,65.9,29.91,SW,225,1.1,2.3,69,0.00,CLR,,0.01,WeatherDisplay:10.37,2013-08-19 21:29:00,
2013-08-19 17:34:00,76.6,65.7,29.90,SW,225,1.1,2.3,69,0.00,CLR,,0.01,WeatherDisplay:10.37,2013-08-19 21:34:00,
2013-08-19 17:39:00,76.6,66.1,29.91,West,270,0.0,0.0,70,0.00,CLR,,0.01,WeatherDisplay:10.37,2013-08-19 21:39:00,
2013-08-19 17:44:00,76.3,65.8,29.91,SW,225,0.2,1.1,70,0.00,CLR,,0.01,WeatherDisplay:10.37,2013-08-19 21:44:00,
2013-08-19 17:49:00,76.3,66.2,29.91,SW,225,1.1,1.1,71,0.00,CLR,,0.01,WeatherDisplay:10.37,2013-08-19 21:49:00,
2013-08-19 17:54:00,76.1,66.0,29.91,WSW,248,1.6,2.3,71,0.00,CLR,,0.01,WeatherDisplay:10.37,2013-08-19 21:54:00,
2013-08-19 17:59:00,75.9,65.8,29.91,SSW,202,1.1,1.1,71,0.00,CLR,,0.01,WeatherDisplay:10.37,2013-08-19 21:59:00,
2013-08-19 18:04:00,75.7,65.7,29.91,SW,225,0.9,2.3,71,0.00,CLR,,0.01,WeatherDisplay:10.37,2013-08-19 22:04:00,
2013-08-19 18:09:00,75.6,65.5,29.91,SW,225,0.5,2.3,71,0.00,CLR,,0.01,WeatherDisplay:10.37,2013-08-19 22:09:00,
2013-08-19 18:14:00,75.4,65.7,29.91,SSW,202,1.1,2.3,72,0.00,CLR,,0.01,WeatherDisplay:10.37,2013-08-19 22:14:00,
2013-08-19 18:19:00,75.2,65.6,29.91,SSW,202,0.7,1.1,72,0.00,CLR,,0.01,WeatherDisplay:10.37,2013-08-19 22:19:00,
2013-08-19 18:24:00,75.0,65.4,29.91,South,180,1.4,1.4,72,0.00,CLR,,0.01,WeatherDisplay:10.37,2013-08-19 22:24:00,
2013-08-19 18:29:00,74.8,65.2,29.91,SW,225,0.5,1.1,72,0.00,CLR,,0.01,WeatherDisplay:10.37,2013-08-19 22:29:00,
2013-08-19 18:34:00,74.7,65.4,29.92,ESE,112,1.1,3.5,73,0.00,CLR,,0.01,WeatherDisplay:10.37,2013-08-19 22:34:00,
2013-08-19 18:39:00,74.5,65.3,29.92,WSW,248,0.7,1.1,73,0.00,CLR,,0.01,WeatherDisplay:10.37,2013-08-19 22:39:00,
2013-08-19 18:44:00,74.3,65.1,29.92,South,180,0.5,1.1,73,0.00,CLR,,0.01,WeatherDisplay:10.37,2013-08-19 22:44:00,
2013-08-19 18:49:00,74.1,64.9,29.92,NW,315,0.7,3.5,73,0.00,CLR,,0.01,WeatherDisplay:10.37,2013-08-19 22:49:00,
2013-08-19 18:54:00,73.9,64.7,29.93,SW,225,0.2,2.3,73,0.00,CLR,,0.01,WeatherDisplay:10.37,2013-08-19 22:54:00,
2013-08-19 18:59:00,73.8,65.0,29.92,SW,225,1.6,1.6,74,0.00,CLR,,0.01,WeatherDisplay:10.37,2013-08-19 22:59:00,
2013-08-19 19:04:00,73.6,64.8,29.92,SW,225,0.5,1.1,74,0.00,CLR,,0.01,WeatherDisplay:10.37,2013-08-19 23:04:00,
2013-08-19 19:09:00,73.4,64.6,29.92,WSW,248,2.4,2.4,74,0.00,CLR,,0.01,WeatherDisplay:10.37,2013-08-19 23:09:00,
2013-08-19 19:14:00,73.0,64.6,29.93,SSW,202,1.8,2.3,75,0.00,CLR,,0.01,WeatherDisplay:10.37,2013-08-19 23:14:00,
2013-08-19 19:19:00,72.9,64.5,29.93,South,180,0.2,1.1,75,0.00,CLR,,0.01,WeatherDisplay:10.37,2013-08-19 23:19:00,
2013-08-19 19:24:00,72.7,64.3,29.93,SW,225,0.7,1.1,75,0.00,CLR,,0.01,WeatherDisplay:10.37,2013-08-19 23:24:00,
2013-08-19 19:29:00,72.3,63.9,29.93,SW,225,0.2,1.1,75,0.00,CLR,,0.01,WeatherDisplay:10.37,2013-08-19 23:29:00,
2013-08-19 19:34:00,72.1,63.4,29.93,SW,225,0.2,0.0,74,0.00,CLR,,0.01,WeatherDisplay:10.37,2013-08-19 23:34:00,
2013-08-19 19:39:00,72.0,63.6,29.93,SW,225,0.0,1.1,75,0.00,CLR,,0.01,WeatherDisplay:10.37,2013-08-19 23:39:00,
2013-08-19 19:44:00,71.6,63.6,29.93,SW,225,0.2,2.3,76,0.00,CLR,,0.01,WeatherDisplay:10.37,2013-08-19 23:44:00,
2013-08-19 19:49:00,71.4,63.5,29.93,SW,225,1.1,1.1,76,0.00,CLR,,0.01,WeatherDisplay:10.37,2013-08-19 23:49:00,
2013-08-19 19:54:00,71.2,63.3,29.93,SSW,202,0.7,1.1,76,0.00,CLR,,0.01,WeatherDisplay:10.37,2013-08-19 23:54:00,
2013-08-19 19:59:00,71.1,63.1,29.93,SSW,202,0.2,1.1,76,0.00,CLR,,0.01,WeatherDisplay:10.37,2013-08-19 23:59:00,
2013-08-19 20:04:00,70.9,63.3,29.93,SW,225,0.5,1.1,77,0.00,CLR,,0.01,WeatherDisplay:10.37,2013-08-20 00:04:00,
2013-08-19 20:09:00,70.7,63.1,29.93,WSW,248,0.0,0.0,77,0.00,CLR,,0.01,WeatherDisplay:10.37,2013-08-20 00:09:00,
2013-08-19 20:14:00,70.7,63.1,29.93,West,270,1.4,1.4,77,0.00,CLR,,0.01,WeatherDisplay:10.37,2013-08-20 00:14:00,
2013-08-19 20:19:00,70.5,63.0,29.93,SW,225,0.7,0.7,77,0.00,CLR,,0.01,WeatherDisplay:10.37,2013-08-20 00:19:00,
2013-08-19 20:24:00,70.3,62.8,29.93,WSW,248,0.7,1.1,77,0.00,CLR,,0.01,WeatherDisplay:10.37,2013-08-20 00:24:00,
2013-08-19 20:29:00,70.2,63.0,29.93,SW,225,0.5,0.5,78,0.00,CLR,,0.01,WeatherDisplay:10.37,2013-08-20 00:29:00,
2013-08-19 20:34:00,70.2,63.0,29.93,SW,225,0.0,0.0,78,0.00,CLR,,0.01,WeatherDisplay:10.37,2013-08-20 00:34:00,
2013-08-19 20:39:00,70.0,62.8,29.93,West,270,0.0,0.0,78,0.00,CLR,,0.01,WeatherDisplay:10.37,2013-08-20 00:39:00,
2013-08-19 20:44:00,69.8,62.6,29.93,SW,225,0.5,0.5,78,0.00,CLR,,0.01,WeatherDisplay:10.37,2013-08-20 00:44:00,
2013-08-19 20:49:00,69.8,63.0,29.93,WSW,248,0.0,0.0,79,0.00,CLR,,0.01,WeatherDisplay:10.37,2013-08-20 00:49:00,
2013-08-19 20:54:00,69.6,62.8,29.93,WSW,248,0.0,0.0,79,0.00,CLR,,0.01,WeatherDisplay:10.37,2013-08-20 00:54:00,
2013-08-19 20:59:00,69.6,62.8,29.93,SSW,202,0.0,0.0,79,0.00,CLR,,0.01,WeatherDisplay:10.37,2013-08-20 00:59:00,
2013-08-19 21:04:00,69.4,62.6,29.93,SSW,202,0.0,0.0,79,0.00,CLR,,0.01,WeatherDisplay:10.37,2013-08-20 01:04:00,
2013-08-19 21:09:00,69.4,62.6,29.93,SSW,202,0.0,0.0,79,0.00,CLR,,0.01,WeatherDisplay:10.37,2013-08-20 01:09:00,
2013-08-19 21:14:00,69.3,62.5,29.93,SSW,202,0.0,0.0,79,0.00,CLR,,0.01,WeatherDisplay:10.37,2013-08-20 01:14:00,
2013-08-19 21:19:00,69.1,62.6,29.93,SSW,202,0.0,0.0,80,0.00,CLR,,0.01,WeatherDisplay:10.37,2013-08-20 01:19:00,
2013-08-19 21:24:00,68.9,62.5,29.93,SSW,202,0.0,0.0,80,0.00,CLR,,0.01,WeatherDisplay:10.37,2013-08-20 01:24:00,
2013-08-19 21:29:00,68.7,62.3,29.94,SSW,202,0.0,0.0,80,0.00,CLR,,0.01,WeatherDisplay:10.37,2013-08-20 01:29:00,
2013-08-19 21:34:00,68.7,62.3,29.93,SSW,202,0.0,0.0,80,0.00,CLR,,0.01,WeatherDisplay:10.37,2013-08-20 01:34:00,
2013-08-19 21:39:00,68.4,61.9,29.93,SSW,202,0.0,0.0,80,0.00,CLR,,0.01,WeatherDisplay:10.37,2013-08-20 01:39:00,
2013-08-19 21:44:00,68.4,62.3,29.93,SSW,202,0.0,0.0,81,0.00,CLR,,0.01,WeatherDisplay:10.37,2013-08-20 01:44:00,
2013-08-19 21:49:00,68.2,62.1,29.93,SSW,202,0.0,0.0,81,0.00,CLR,,0.01,WeatherDisplay:10.37,2013-08-20 01:49:00,
2013-08-19 21:54:00,68.2,62.1,29.93,SSW,202,0.0,0.0,81,0.00,CLR,,0.01,WeatherDisplay:10.37,2013-08-20 01:54:00,
2013-08-19 21:59:00,68.2,62.1,29.93,SSW,202,0.0,0.0,81,0.00,CLR,,0.01,WeatherDisplay:10.37,2013-08-20 01:59:00,
2013-08-19 22:04:00,68.0,61.9,29.93,SSW,202,0.0,0.0,81,0.00,CLR,,0.01,WeatherDisplay:10.37,2013-08-20 02:04:00,
2013-08-19 22:09:00,68.0,62.3,29.93,SSW,202,0.0,0.0,82,0.00,CLR,,0.01,WeatherDisplay:10.37,2013-08-20 02:09:00,
2013-08-19 22:14:00,68.0,62.3,29.93,SSW,202,0.0,0.0,82,0.00,CLR,,0.01,WeatherDisplay:10.37,2013-08-20 02:14:00,
2013-08-19 22:19:00,68.0,62.3,29.93,SSW,202,0.0,0.0,82,0.00,CLR,,0.01,WeatherDisplay:10.37,2013-08-20 02:19:00,
2013-08-19 22:24:00,68.0,62.3,29.93,SSW,202,0.0,0.0,82,0.00,CLR,,0.01,WeatherDisplay:10.37,2013-08-20 02:24:00,
2013-08-19 22:29:00,68.0,62.3,29.93,SSW,202,0.0,0.0,82,0.00,CLR,,0.01,WeatherDisplay:10.37,2013-08-20 02:29:00,
2013-08-19 22:34:00,68.0,62.3,29.93,SSW,202,0.0,0.0,82,0.00,CLR,,0.01,WeatherDisplay:10.37,2013-08-20 02:34:00,
2013-08-19 22:39:00,68.0,62.3,29.93,SSW,202,0.0,0.0,82,0.00,CLR,,0.01,WeatherDisplay:10.37,2013-08-20 02:39:00,
2013-08-19 22:44:00,67.8,62.1,29.93,SSW,202,0.0,0.0,82,0.00,CLR,,0.01,WeatherDisplay:10.37,2013-08-20 02:44:00,
2013-08-19 22:49:00,67.6,61.9,29.93,SSW,202,0.0,0.0,82,0.00,CLR,,0.01,WeatherDisplay:10.37,2013-08-20 02:49:00,
2013-08-19 22:54:00,67.6,62.3,29.93,SSW,202,0.0,0.0,83,0.00,CLR,,0.01,WeatherDisplay:10.37,2013-08-20 02:54:00,
2013-08-19 22:59:00,67.5,62.1,29.93,SSW,202,0.0,0.0,83,0.00,CLR,,0.01,WeatherDisplay:10.37,2013-08-20 02:59:00,
2013-08-19 23:04:00,67.5,62.1,29.93,SSW,202,0.0,0.0,83,0.00,CLR,,0.01,WeatherDisplay:10.37,2013-08-20 03:04:00,
2013-08-19 23:09:00,67.5,62.1,29.93,SSW,202,0.0,0.0,83,0.00,CLR,,0.01,WeatherDisplay:10.37,2013-08-20 03:09:00,
2013-08-19 23:14:00,67.5,62.1,29.93,SSW,202,0.0,0.0,83,0.00,CLR,,0.01,WeatherDisplay:10.37,2013-08-20 03:14:00,
2013-08-19 23:19:00,67.5,62.5,29.93,SSW,202,0.0,0.0,84,0.00,CLR,,0.01,WeatherDisplay:10.37,2013-08-20 03:19:00,
2013-08-19 23:24:00,67.6,62.6,29.93,SSW,202,0.0,0.0,84,0.00,CLR,,0.01,WeatherDisplay:10.37,2013-08-20 03:24:00,
2013-08-19 23:29:00,67.6,62.6,29.93,SSW,202,0.0,0.0,84,0.00,CLR,,0.01,WeatherDisplay:10.37,2013-08-20 03:29:00,
2013-08-19 23:34:00,67.6,62.6,29.94,WSW,248,0.0,0.0,84,0.00,CLR,,0.01,WeatherDisplay:10.37,2013-08-20 03:34:00,
2013-08-19 23:39:00,67.6,62.6,29.93,WNW,292,0.0,0.0,84,0.00,CLR,,0.01,WeatherDisplay:10.37,2013-08-20 03:39:00,
2013-08-19 23:44:00,67.6,62.6,29.93,WSW,248,0.5,0.5,84,0.00,CLR,,0.01,WeatherDisplay:10.37,2013-08-20 03:44:00,
2013-08-19 23:49:00,67.6,62.6,29.93,SW,225,0.5,0.5,84,0.00,CLR,,0.01,WeatherDisplay:10.37,2013-08-20 03:49:00,
2013-08-19 23:54:00,67.6,62.6,29.93,WSW,248,0.5,0.5,84,0.00,CLR,,0.01,WeatherDisplay:10.37,2013-08-20 03:54:00,
2013-08-19 23:59:00,67.6,62.6,29.93,NNW,338,0.0,0.0,84,0.00,CLR,,0.01,WeatherDisplay:10.37,2013-08-20 03:59:00,